^^
B2 Weather Station Historical Data
Daily Summary for June 9, 2018 Units:  English    Metric   Both
Daily Weekly Monthly Yearly Custom
  High: Low: Average:
Temperature: 83.9 °F 59.6 °F 70.4 °F
Dew Point: 72.5 °F 57.6 °F 65.5 °F
Humidity: 95% 63% 85%
Wind Speed: 11.5mph 0.0mph 1.8mph
Wind Gust: 8.8mph - -
Wind- - SE
Pressure: 30.05 in 29.89 in -
Precipitation: 0.10 in    
Historical Graphs
 
 
Tabular Data for June 9, 2018
Time Temperature Dew Point Pressure Wind Wind Speed Wind Gust Humidity Rainfall Rate (Hourly) solar
00:39 60.5 °F 57.9 °F 30.04 in Calm     91% 0.00 in 0.00 W/m2
00:44 60.4 °F 57.8 °F 30.04 in Calm     91% 0.00 in 0.00 W/m2
00:49 60.4 °F 57.8 °F 30.04 in Calm     91% 0.00 in 0.00 W/m2
00:54 60.4 °F 57.8 °F 30.04 in Calm     91% 0.00 in 0.00 W/m2
00:59 60.3 °F 58.0 °F 30.04 in Calm     92% 0.00 in 0.00 W/m2
01:04 60.3 °F 58.0 °F 30.03 in Calm     92% 0.00 in 0.00 W/m2
01:09 60.3 °F 58.0 °F 30.03 in Calm     92% 0.00 in 0.00 W/m2
01:14 60.2 °F 57.9 °F 30.03 in Calm     92% 0.00 in 0.00 W/m2
01:19 60.2 °F 57.9 °F 30.02 in Calm     92% 0.00 in 0.00 W/m2
01:24 60.1 °F 57.8 °F 30.03 in Calm     92% 0.00 in 0.00 W/m2
01:29 60.1 °F 57.8 °F 30.03 in Calm     92% 0.00 in 0.00 W/m2
01:34 60.0 °F 57.7 °F 30.03 in Calm     92% 0.00 in 0.00 W/m2
01:39 60.0 °F 57.7 °F 30.02 in Calm     92% 0.00 in 0.00 W/m2
01:44 59.9 °F 57.6 °F 30.02 in Calm     92% 0.00 in 0.00 W/m2
01:49 59.9 °F 57.9 °F 30.02 in Calm     93% 0.00 in 0.00 W/m2
01:54 59.9 °F 57.9 °F 30.03 in Calm     93% 0.00 in 0.00 W/m2
01:59 59.9 °F 57.9 °F 30.03 in Calm     93% 0.00 in 0.00 W/m2
02:04 59.9 °F 57.9 °F 30.02 in Calm     93% 0.00 in 0.00 W/m2
02:09 59.9 °F 57.9 °F 30.02 in Calm     93% 0.00 in 0.00 W/m2
02:14 60.0 °F 58.0 °F 30.02 in Calm     93% 0.00 in 0.00 W/m2
02:19 59.9 °F 57.9 °F 30.02 in Calm     93% 0.00 in 0.00 W/m2
02:24 59.9 °F 57.9 °F 30.02 in Calm     93% 0.00 in 0.00 W/m2
02:29 59.8 °F 57.8 °F 30.02 in Calm     93% 0.00 in 0.00 W/m2
02:34 59.9 °F 57.9 °F 30.01 in Calm     93% 0.00 in 0.00 W/m2
02:39 59.9 °F 58.2 °F 30.01 in Calm     94% 0.00 in 0.00 W/m2
02:44 59.9 °F 58.2 °F 30.01 in Calm     94% 0.00 in 0.00 W/m2
02:49 59.8 °F 57.8 °F 30.01 in Calm     93% 0.00 in 0.00 W/m2
02:54 59.6 °F 57.6 °F 30.00 in Calm     93% 0.00 in 0.00 W/m2
02:59 59.6 °F 57.9 °F 30.00 in Calm     94% 0.00 in 0.00 W/m2
03:04 59.8 °F 58.1 °F 30.00 in Calm     94% 0.00 in 0.00 W/m2
03:09 60.1 °F 58.4 °F 30.00 in Calm     94% 0.00 in 0.00 W/m2
03:14 60.2 °F 58.5 °F 30.00 in Calm     94% 0.00 in 0.00 W/m2
03:19 60.2 °F 58.5 °F 30.00 in Calm     94% 0.00 in 0.00 W/m2
03:24 60.0 °F 58.3 °F 30.00 in Calm     94% 0.00 in 0.00 W/m2
03:29 60.1 °F 58.4 °F 30.00 in Calm     94% 0.00 in 0.00 W/m2
03:34 60.2 °F 58.5 °F 30.00 in Calm     94% 0.00 in 0.00 W/m2
03:39 60.3 °F 58.6 °F 30.00 in Calm     94% 0.00 in 0.00 W/m2
03:44 60.3 °F 58.6 °F 30.00 in Calm     94% 0.00 in 0.00 W/m2
03:49 60.3 °F 58.6 °F 30.00 in Calm     94% 0.00 in 0.00 W/m2
03:54 60.3 °F 58.6 °F 30.00 in Calm     94% 0.00 in 0.00 W/m2
03:59 60.3 °F 58.6 °F 30.00 in Calm     94% 0.00 in 0.00 W/m2
04:04 60.4 °F 58.7 °F 29.99 in Calm     94% 0.00 in 0.00 W/m2
04:09 60.5 °F 58.8 °F 30.00 in Calm     94% 0.00 in 0.00 W/m2
04:14 60.7 °F 59.0 °F 30.00 in Calm     94% 0.00 in 0.00 W/m2
04:19 61.0 °F 59.6 °F 30.00 in Calm     95% 0.00 in 0.00 W/m2
04:24 61.4 °F 60.0 °F 29.99 in Calm     95% 0.00 in 0.00 W/m2
04:29 61.5 °F 60.1 °F 29.99 in Calm     95% 0.00 in 0.00 W/m2
04:34 62.0 °F 60.6 °F 29.99 in Calm     95% 0.00 in 0.00 W/m2
04:39 62.7 °F 61.2 °F 29.99 in Calm     95% 0.00 in 0.00 W/m2
04:44 63.3 °F 61.8 °F 29.99 in Calm     95% 0.00 in 0.00 W/m2
04:49 63.8 °F 62.3 °F 29.99 in Calm     95% 0.00 in 0.00 W/m2
04:54 64.0 °F 62.5 °F 29.99 in Calm     95% 0.00 in 0.00 W/m2
04:59 64.2 °F 62.7 °F 29.99 in Calm     95% 0.00 in 0.00 W/m2
05:04 64.1 °F 62.6 °F 29.99 in Calm     95% 0.00 in 0.00 W/m2
05:09 64.4 °F 62.9 °F 29.99 in Calm     95% 0.00 in 0.00 W/m2
05:14 64.9 °F 63.4 °F 30.00 in Calm     95% 0.00 in 0.00 W/m2
05:19 65.3 °F 63.8 °F 30.00 in Calm     95% 0.00 in 0.00 W/m2
05:24 65.6 °F 64.1 °F 30.00 in Calm     95% 0.00 in 0.00 W/m2
05:29 65.8 °F 64.3 °F 30.00 in Calm     95% 0.00 in 5.00 W/m2
05:34 66.1 °F 64.6 °F 30.00 in Calm     95% 0.00 in 7.00 W/m2
05:39 66.2 °F 64.7 °F 29.99 in Calm     95% 0.00 in 9.00 W/m2
05:44 66.5 °F 65.0 °F 29.99 in SE 1.0 mph 0.8 mph 95% 0.00 in 19.00 W/m2
05:49 66.7 °F 65.2 °F 29.99 in Calm     95% 0.00 in 26.00 W/m2
05:54 66.9 °F 65.4 °F 29.99 in SSE 3.0 mph 0.3 mph 95% 0.00 in 30.00 W/m2
05:59 67.0 °F 65.5 °F 30.00 in Calm     95% 0.00 in 32.00 W/m2
06:04 67.1 °F 65.6 °F 30.01 in NNW 3.5 mph 3.2 mph 95% 0.00 in 33.00 W/m2
06:09 66.7 °F 65.2 °F 30.01 in NNW 11.5 mph 8.8 mph 95% 0.00 in 25.00 W/m2
06:14 65.8 °F 64.0 °F 30.02 in NW 11.5 mph 6.7 mph 94% 0.00 in 37.00 W/m2
06:19 65.6 °F 64.1 °F 30.02 in NNW 6.9 mph 5.2 mph 95% 0.00 in 23.00 W/m2
06:24 65.5 °F 64.0 °F 30.02 in North 6.9 mph 4.8 mph 95% 0.00 in 47.00 W/m2
06:29 65.4 °F 63.9 °F 30.02 in NNE 8.1 mph 8.0 mph 95% 0.00 in 51.00 W/m2
06:34 65.3 °F 63.5 °F 30.02 in NNW 6.9 mph 5.4 mph 94% 0.00 in 67.00 W/m2
06:39 65.0 °F 63.2 °F 30.02 in North 6.9 mph 3.3 mph 94% 0.00 in 79.00 W/m2
06:44 64.8 °F 63.0 °F 30.02 in NNE 5.8 mph 3.6 mph 94% 0.00 in 98.00 W/m2
06:47 64.7 °F 62.9 °F 30.02 in NNE 6.9 mph 4.6 mph 94% 0.00 in 97.00 W/m2
06:54 64.7 °F 62.9 °F 30.02 in ENE 7.0 mph 6.9 mph 94% 0.00 in 91.00 W/m2
06:59 64.5 °F 62.4 °F 30.02 in NNW 6.9 mph 3.9 mph 93% 0.00 in 104.00 W/m2
07:04 64.6 °F 62.5 °F 30.02 in North 4.6 mph 3.2 mph 93% 0.00 in 135.00 W/m2
07:09 64.8 °F 62.7 °F 30.02 in ENE 4.6 mph 0.3 mph 93% 0.00 in 155.00 W/m2
07:14 65.2 °F 63.1 °F 30.02 in NE 5.8 mph 3.4 mph 93% 0.00 in 181.00 W/m2
07:19 65.6 °F 63.2 °F 30.01 in NE 6.9 mph 3.1 mph 92% 0.00 in 197.00 W/m2
07:24 65.9 °F 63.2 °F 30.02 in North 6.9 mph 3.2 mph 91% 0.00 in 116.00 W/m2
07:29 66.0 °F 63.0 °F 30.01 in NE 5.0 mph 2.4 mph 90% 0.00 in 125.00 W/m2
07:34 66.1 °F 63.4 °F 30.01 in NNE 7.0 mph 2.0 mph 91% 0.00 in 125.00 W/m2
07:39 66.2 °F 63.5 °F 30.01 in NE 4.0 mph 1.3 mph 91% 0.00 in 63.00 W/m2
07:44 66.2 °F 63.2 °F 30.01 in ENE 3.5 mph   90% 0.00 in 49.00 W/m2
07:49 66.1 °F 63.1 °F 30.03 in Calm     90% 0.00 in 16.00 W/m2
07:54 66.1 °F 63.1 °F 30.05 in NW 2.0 mph 0.3 mph 90% 0.00 in 11.00 W/m2
07:59 66.1 °F 63.1 °F 30.05 in Calm     90% 0.00 in 11.00 W/m2
08:04 66.1 °F 63.1 °F 30.05 in Calm     90% 0.00 in 26.00 W/m2
08:09 66.2 °F 63.2 °F 30.04 in NW 3.0 mph 1.7 mph 90% 0.00 in 44.00 W/m2
08:14 66.3 °F 63.3 °F 30.04 in NW 2.3 mph   90% 0.00 in 62.00 W/m2
08:19 66.4 °F 63.4 °F 30.04 in Calm     90% 0.00 in 70.00 W/m2
08:24 66.5 °F 63.5 °F 30.03 in Calm     90% 0.00 in 56.00 W/m2
08:29 66.6 °F 63.6 °F 30.04 in Calm     90% 0.00 in 47.00 W/m2
08:34 66.7 °F 63.7 °F 30.04 in Calm     90% 0.00 in 51.00 W/m2
08:39 66.8 °F 63.8 °F 30.03 in Calm     90% 0.00 in 39.00 W/m2
08:44 66.8 °F 64.1 °F 30.03 in Calm     91% 0.00 in 37.00 W/m2
08:49 66.8 °F 64.1 °F 30.04 in Calm     91% 0.01 in 40.00 W/m2
08:54 66.8 °F 64.1 °F 30.03 in Calm     91% 0.02 in 58.00 W/m2
08:59 66.8 °F 64.4 °F 30.03 in Calm     92% 0.02 in 79.00 W/m2
09:04 66.8 °F 64.4 °F 30.03 in Calm     92% 0.03 in 100.00 W/m2
09:09 66.8 °F 64.4 °F 30.03 in Calm     92% 0.05 in 125.00 W/m2
09:14 66.7 °F 64.3 °F 30.02 in Calm     92% 0.07 in 132.00 W/m2
09:19 66.7 °F 64.6 °F 30.02 in Calm     93% 0.07 in 113.00 W/m2
09:24 66.6 °F 64.5 °F 30.02 in Calm     93% 0.08 in 125.00 W/m2
09:29 66.6 °F 64.5 °F 30.01 in Calm     93% 0.08 in 128.00 W/m2
09:34 66.6 °F 64.5 °F 30.01 in Calm     93% 0.08 in 120.00 W/m2
09:39 66.6 °F 64.5 °F 30.01 in Calm     93% 0.08 in 125.00 W/m2
09:44 66.6 °F 64.5 °F 30.00 in Calm     93% 0.09 in 128.00 W/m2
09:49 66.8 °F 64.7 °F 30.00 in Calm     93% 0.08 in 128.00 W/m2
09:54 67.0 °F 64.9 °F 30.00 in Calm     93% 0.07 in 139.00 W/m2
09:59 67.2 °F 65.4 °F 30.00 in Calm     94% 0.07 in 174.00 W/m2
10:04 67.4 °F 65.3 °F 30.01 in Calm     93% 0.06 in 179.00 W/m2
10:09 67.4 °F 65.3 °F 30.01 in NNW 2.0 mph 0.8 mph 93% 0.04 in 193.00 W/m2
10:14 67.6 °F 65.5 °F 30.01 in Calm     93% 0.02 in 246.00 W/m2
10:19 67.8 °F 65.7 °F 30.00 in NNW 3.5 mph 1.1 mph 93% 0.02 in 338.00 W/m2
10:24 68.2 °F 66.4 °F 30.01 in North 3.5 mph 0.8 mph 94% 0.01 in 299.00 W/m2
10:29 68.4 °F 66.3 °F 30.01 in NNW 4.6 mph 2.9 mph 93% 0.01 in 292.00 W/m2
10:34 68.8 °F 66.7 °F 30.01 in NNW 4.6 mph 2.6 mph 93% 0.01 in 554.00 W/m2
10:39 69.1 °F 67.0 °F 30.00 in North 3.5 mph 0.6 mph 93% 0.01 in 311.00 W/m2
10:44 69.3 °F 67.2 °F 30.00 in Calm     93% 0.00 in 207.00 W/m2
10:49 69.1 °F 67.0 °F 30.00 in NNE 1.2 mph   93% 0.00 in 153.00 W/m2
10:54 69.2 °F 67.1 °F 30.00 in NE 3.5 mph 0.1 mph 93% 0.01 in 118.00 W/m2
10:59 69.0 °F 66.9 °F 30.00 in Calm     93% 0.01 in 120.00 W/m2
11:04 68.9 °F 66.8 °F 30.00 in Calm     93% 0.01 in 146.00 W/m2
11:09 69.0 °F 66.9 °F 30.01 in Calm     93% 0.01 in 123.00 W/m2
11:14 69.0 °F 66.9 °F 30.02 in Calm     93% 0.01 in 83.00 W/m2
11:19 68.8 °F 66.4 °F 30.02 in Calm     92% 0.01 in 86.00 W/m2
11:24 68.8 °F 66.7 °F 30.01 in Calm     93% 0.01 in 83.00 W/m2
11:29 68.9 °F 66.8 °F 30.00 in Calm     93% 0.01 in 83.00 W/m2
11:34 68.8 °F 66.7 °F 30.00 in Calm     93% 0.01 in 81.00 W/m2
11:39 68.8 °F 66.7 °F 30.00 in Calm     93% 0.01 in 84.00 W/m2
11:44 68.8 °F 66.7 °F 30.00 in Calm     93% 0.01 in 102.00 W/m2
11:49 68.9 °F 66.8 °F 30.00 in Calm     93% 0.01 in 128.00 W/m2
11:54 69.1 °F 67.0 °F 30.00 in Calm     93% 0.00 in 142.00 W/m2
11:59 69.3 °F 67.2 °F 30.00 in Calm     93% 0.00 in 176.00 W/m2
12:04 69.4 °F 67.3 °F 30.00 in Calm     93% 0.00 in 190.00 W/m2
12:09 69.7 °F 67.6 °F 30.00 in ENE 2.3 mph   93% 0.00 in 200.00 W/m2
12:14 69.9 °F 67.8 °F 30.00 in Calm     93% 0.00 in 257.00 W/m2
12:19 70.1 °F 68.0 °F 30.00 in Calm     93% 0.00 in 315.00 W/m2
12:24 70.4 °F 68.0 °F 30.00 in Calm     92% 0.00 in 352.00 W/m2
12:29 70.8 °F 68.4 °F 30.00 in Calm     92% 0.00 in 896.00 W/m2
12:34 71.8 °F 69.3 °F 30.00 in Calm     92% 0.00 in 896.00 W/m2
12:39 72.5 °F 69.7 °F 29.99 in Calm     91% 0.00 in 1162.00 W/m2
12:44 73.4 °F 70.6 °F 29.99 in Calm     91% 0.00 in 1146.00 W/m2
12:49 74.0 °F 69.9 °F 29.99 in ENE 5.8 mph 3.2 mph 87% 0.00 in 415.00 W/m2
12:54 74.1 °F 69.6 °F 29.99 in East 2.0 mph 1.0 mph 86% 0.00 in 439.00 W/m2
12:59 74.0 °F 69.2 °F 29.99 in Calm     85% 0.00 in 664.00 W/m2
13:04 74.4 °F 69.9 °F 29.99 in ESE 4.6 mph 1.0 mph 86% 0.00 in 687.00 W/m2
13:09 74.5 °F 69.3 °F 29.98 in ENE 3.5 mph   84% 0.00 in 698.00 W/m2
13:14 75.1 °F 71.0 °F 29.98 in Calm   0.1 mph 87% 0.00 in 997.00 W/m2
13:19 75.7 °F 70.5 °F 29.98 in Calm     84% 0.00 in 921.00 W/m2
13:24 76.1 °F 70.6 °F 29.98 in ENE 6.9 mph 1.1 mph 83% 0.00 in 846.00 W/m2
13:29 76.6 °F 71.4 °F 29.97 in ENE 4.6 mph 2.9 mph 84% 0.00 in 979.00 W/m2
13:34 77.0 °F 70.0 °F 29.97 in NE 3.5 mph 1.2 mph 79% 0.00 in 851.00 W/m2
13:39 77.3 °F 69.9 °F 29.97 in SE 4.6 mph 2.4 mph 78% 0.00 in 944.00 W/m2
13:44 77.5 °F 69.7 °F 29.97 in SSE 4.6 mph   77% 0.00 in 946.00 W/m2
13:49 77.7 °F 70.3 °F 29.97 in Calm     78% 0.00 in 684.00 W/m2
13:54 78.1 °F 70.3 °F 29.97 in Calm     77% 0.00 in 889.00 W/m2
13:59 78.2 °F 70.0 °F 29.96 in East 4.6 mph 0.1 mph 76% 0.00 in 710.00 W/m2
14:04 78.2 °F 70.0 °F 29.96 in ESE 4.6 mph 0.6 mph 76% 0.00 in 942.00 W/m2
14:09 78.3 °F 71.2 °F 29.96 in NNE 3.5 mph 1.4 mph 79% 0.00 in 947.00 W/m2
14:14 78.6 °F 70.0 °F 29.96 in Calm     75% 0.00 in 1102.00 W/m2
14:19 79.2 °F 70.2 °F 29.96 in Calm     74% 0.00 in 469.00 W/m2
14:24 79.2 °F 70.2 °F 29.96 in Calm   2.2 mph 74% 0.00 in 480.00 W/m2
14:29 79.2 °F 69.8 °F 29.96 in East 2.3 mph 0.1 mph 73% 0.00 in 930.00 W/m2
14:34 79.4 °F 70.4 °F 29.95 in SSW 1.2 mph   74% 0.00 in 925.00 W/m2
14:39 80.0 °F 70.6 °F 29.95 in SE 3.5 mph 0.1 mph 73% 0.00 in 879.00 W/m2
14:44 80.5 °F 70.2 °F 29.94 in NE 1.2 mph   71% 0.00 in 858.00 W/m2
14:49 80.7 °F 70.8 °F 29.94 in East 4.6 mph   72% 0.00 in 835.00 W/m2
14:54 80.9 °F 70.2 °F 29.94 in East 4.6 mph 2.3 mph 70% 0.00 in 817.00 W/m2
14:59 80.6 °F 69.5 °F 29.93 in SE 3.5 mph 0.7 mph 69% 0.00 in 803.00 W/m2
15:04 80.7 °F 70.4 °F 29.93 in SSE 3.5 mph 1.7 mph 71% 0.00 in 793.00 W/m2
15:09 80.8 °F 70.5 °F 29.92 in ENE 8.1 mph 2.2 mph 71% 0.00 in 780.00 W/m2
15:14 81.0 °F 69.4 °F 29.93 in ESE 3.0 mph 1.8 mph 68% 0.00 in 766.00 W/m2
15:19 81.2 °F 70.5 °F 29.93 in East 4.6 mph 0.3 mph 70% 0.00 in 763.00 W/m2
15:24 81.4 °F 70.7 °F 29.92 in ESE 8.1 mph 4.9 mph 70% 0.00 in 737.00 W/m2
15:29 81.6 °F 70.0 °F 29.93 in ESE 5.8 mph 3.8 mph 68% 0.00 in 735.00 W/m2
15:34 81.2 °F 69.6 °F 29.93 in East 3.5 mph 0.4 mph 68% 0.00 in 715.00 W/m2
15:39 81.1 °F 68.7 °F 29.92 in Calm     66% 0.00 in 686.00 W/m2
15:44 81.3 °F 68.9 °F 29.93 in Calm     66% 0.00 in 680.00 W/m2
15:49 81.6 °F 70.4 °F 29.93 in SE 2.3 mph 2.0 mph 69% 0.00 in 664.00 W/m2
15:54 82.0 °F 70.0 °F 29.93 in SE 4.6 mph 0.1 mph 67% 0.00 in 666.00 W/m2
15:59 82.1 °F 70.1 °F 29.93 in South 4.6 mph 0.8 mph 67% 0.00 in 642.00 W/m2
16:04 82.1 °F 70.5 °F 29.92 in ESE 3.5 mph   68% 0.00 in 622.00 W/m2
16:09 82.1 °F 69.6 °F 29.92 in East 1.2 mph   66% 0.00 in 598.00 W/m2
16:14 82.5 °F 70.9 °F 29.92 in SE 3.0 mph 1.6 mph 68% 0.00 in 643.00 W/m2
16:19 82.8 °F 70.7 °F 29.91 in ESE 2.3 mph 0.1 mph 67% 0.00 in 649.00 W/m2
16:24 83.0 °F 69.6 °F 29.91 in South 4.6 mph 1.2 mph 64% 0.00 in 636.00 W/m2
16:29 83.0 °F 70.0 °F 29.92 in SSW 4.0 mph 2.1 mph 65% 0.00 in 606.00 W/m2
16:34 83.1 °F 69.7 °F 29.92 in NW 4.6 mph 0.2 mph 64% 0.00 in 596.00 W/m2
16:39 83.2 °F 70.2 °F 29.92 in SSW 4.6 mph 2.4 mph 65% 0.00 in 575.00 W/m2
16:44 83.3 °F 69.8 °F 29.91 in Calm     64% 0.00 in 561.00 W/m2
16:49 83.6 °F 70.6 °F 29.91 in SE 5.0 mph 1.5 mph 65% 0.00 in 545.00 W/m2
16:54 83.8 °F 69.9 °F 29.91 in SW 5.8 mph 0.9 mph 63% 0.00 in 471.00 W/m2
16:59 83.9 °F 70.4 °F 29.92 in SW 3.5 mph 1.4 mph 64% 0.00 in 540.00 W/m2
17:04 83.6 °F 69.7 °F 29.92 in SSW 8.1 mph 6.7 mph 63% 0.00 in 473.00 W/m2
17:09 83.3 °F 69.8 °F 29.92 in West 5.8 mph 2.0 mph 64% 0.00 in 429.00 W/m2
17:14 83.0 °F 70.0 °F 29.92 in WSW 7.0 mph 4.9 mph 65% 0.00 in 438.00 W/m2
17:19 82.7 °F 70.2 °F 29.92 in SW 6.0 mph 3.6 mph 66% 0.00 in 434.00 W/m2
17:24 82.4 °F 69.9 °F 29.92 in SW 7.0 mph 5.0 mph 66% 0.00 in 417.00 W/m2
17:29 82.3 °F 70.2 °F 29.92 in SW 5.8 mph 3.5 mph 67% 0.00 in 420.00 W/m2
17:34 82.0 °F 70.4 °F 29.91 in SSW 3.5 mph 1.8 mph 68% 0.00 in 371.00 W/m2
17:39 82.1 °F 70.5 °F 29.91 in SW 3.5 mph 2.4 mph 68% 0.00 in 359.00 W/m2
17:44 82.3 °F 71.1 °F 29.91 in Calm   0.6 mph 69% 0.00 in 383.00 W/m2
17:49 82.7 °F 71.1 °F 29.91 in SSW 3.5 mph 1.5 mph 68% 0.00 in 378.00 W/m2
17:54 82.8 °F 71.2 °F 29.91 in SSW 5.8 mph 2.0 mph 68% 0.00 in 364.00 W/m2
17:59 83.1 °F 71.9 °F 29.91 in SW 2.0 mph 3.1 mph 69% 0.00 in 339.00 W/m2
18:04 83.0 °F 71.3 °F 29.92 in South 2.3 mph 0.5 mph 68% 0.00 in 329.00 W/m2
18:09 83.0 °F 71.3 °F 29.91 in SSW 4.6 mph 2.7 mph 68% 0.00 in 309.00 W/m2
18:14 82.9 °F 72.1 °F 29.91 in Calm     70% 0.00 in 271.00 W/m2
18:19 83.0 °F 71.3 °F 29.91 in Calm     68% 0.00 in 206.00 W/m2
18:24 82.9 °F 71.3 °F 29.91 in Calm   1.0 mph 68% 0.00 in 125.00 W/m2
18:29 82.7 °F 71.1 °F 29.91 in West 3.5 mph 1.4 mph 68% 0.00 in 236.00 W/m2
18:34 82.6 °F 71.4 °F 29.91 in Calm     69% 0.00 in 221.00 W/m2
18:39 82.5 °F 71.3 °F 29.90 in Calm     69% 0.00 in 204.00 W/m2
18:44 82.5 °F 71.3 °F 29.91 in Calm     69% 0.00 in 113.00 W/m2
18:49 82.3 °F 71.1 °F 29.90 in Calm     69% 0.00 in 54.00 W/m2
18:54 81.8 °F 71.1 °F 29.90 in Calm     70% 0.00 in 46.00 W/m2
18:59 81.5 °F 71.2 °F 29.90 in Calm     71% 0.00 in 81.00 W/m2
19:04 81.3 °F 71.4 °F 29.90 in Calm     72% 0.00 in 130.00 W/m2
19:09 81.2 °F 71.3 °F 29.89 in Calm     72% 0.00 in 67.00 W/m2
19:14 81.0 °F 71.1 °F 29.89 in Calm     72% 0.00 in 39.00 W/m2
19:19 81.0 °F 71.1 °F 29.89 in Calm     72% 0.00 in 60.00 W/m2
19:24 81.1 °F 72.0 °F 29.89 in Calm     74% 0.00 in 32.00 W/m2
19:29 80.8 °F 72.5 °F 29.90 in Calm     76% 0.00 in 21.00 W/m2
19:34 80.5 °F 72.2 °F 29.90 in Calm     76% 0.00 in 25.00 W/m2
19:39 80.2 °F 72.3 °F 29.90 in Calm     77% 0.00 in 16.00 W/m2
19:44 79.8 °F 71.6 °F 29.90 in Calm     76% 0.00 in 7.00 W/m2
19:49 79.5 °F 71.7 °F 29.91 in Calm     77% 0.00 in 7.00 W/m2
19:54 79.1 °F 71.3 °F 29.90 in Calm     77% 0.00 in 14.00 W/m2
19:59 78.7 °F 71.3 °F 29.90 in Calm     78% 0.00 in 16.00 W/m2
20:04 78.5 °F 71.4 °F 29.90 in Calm     79% 0.00 in 12.00 W/m2
20:09 78.1 °F 71.4 °F 29.90 in Calm     80% 0.00 in 9.00 W/m2
20:14 77.7 °F 71.0 °F 29.90 in Calm     80% 0.00 in 5.00 W/m2
20:19 77.3 °F 71.0 °F 29.91 in Calm     81% 0.00 in 0.00 W/m2
20:24 77.0 °F 70.7 °F 29.91 in Calm     81% 0.00 in 0.00 W/m2
20:29 76.7 °F 70.8 °F 29.91 in Calm     82% 0.00 in 0.00 W/m2
20:34 76.3 °F 70.4 °F 29.90 in Calm     82% 0.00 in 0.00 W/m2
20:39 75.8 °F 70.3 °F 29.90 in NE 6.0 mph 2.8 mph 83% 0.00 in 0.00 W/m2
20:44 74.6 °F 68.0 °F 29.91 in ENE 6.9 mph 0.3 mph 80% 0.00 in 0.00 W/m2
20:49 73.9 °F 67.7 °F 29.91 in NE 1.2 mph 0.1 mph 81% 0.00 in 0.00 W/m2
20:54 73.2 °F 67.0 °F 29.91 in NE 8.1 mph 3.9 mph 81% 0.00 in 0.00 W/m2
20:59 72.5 °F 66.3 °F 29.91 in NE 9.2 mph 3.8 mph 81% 0.00 in 0.00 W/m2
21:04 71.9 °F 65.8 °F 29.91 in NE 5.8 mph 3.1 mph 81% 0.00 in 0.00 W/m2
21:09 71.4 °F 65.6 °F 29.91 in NNE 4.6 mph 1.2 mph 82% 0.00 in 0.00 W/m2
21:14 71.1 °F 65.3 °F 29.91 in NE 1.0 mph 0.2 mph 82% 0.00 in 0.00 W/m2
21:19 70.7 °F 65.3 °F 29.92 in SSE 3.0 mph 0.2 mph 83% 0.00 in 0.00 W/m2
21:24 70.3 °F 65.2 °F 29.91 in ENE 9.2 mph 4.8 mph 84% 0.00 in 0.00 W/m2
21:29 69.8 °F 65.1 °F 29.91 in NNE 4.6 mph 3.6 mph 85% 0.00 in 0.00 W/m2
21:34 69.4 °F 64.7 °F 29.91 in NNE 8.1 mph 5.0 mph 85% 0.00 in 0.00 W/m2
21:39 68.9 °F 64.5 °F 29.92 in NNE 5.8 mph 4.0 mph 86% 0.00 in 0.00 W/m2
21:44 68.4 °F 64.0 °F 29.92 in NE 2.3 mph 0.1 mph 86% 0.00 in 0.00 W/m2
21:49 68.0 °F 63.7 °F 29.92 in Calm   0.1 mph 86% 0.00 in 0.00 W/m2
21:54 67.7 °F 63.7 °F 29.92 in NNE 4.6 mph 0.6 mph 87% 0.00 in 0.00 W/m2
21:59 67.3 °F 63.3 °F 29.92 in NNE 2.3 mph 0.4 mph 87% 0.00 in 0.00 W/m2
22:04 66.9 °F 63.2 °F 29.91 in NE 3.5 mph 0.1 mph 88% 0.00 in 0.00 W/m2
22:09 66.6 °F 62.9 °F 29.91 in Calm     88% 0.00 in 0.00 W/m2
22:14 66.3 °F 62.6 °F 29.91 in NNE 2.3 mph   88% 0.00 in 0.00 W/m2
22:19 66.1 °F 62.8 °F 29.91 in NE 1.2 mph   89% 0.00 in 0.00 W/m2
22:24 65.9 °F 62.6 °F 29.91 in Calm     89% 0.00 in 0.00 W/m2
22:29 65.7 °F 62.4 °F 29.91 in Calm     89% 0.00 in 0.00 W/m2
22:34 65.5 °F 62.5 °F 29.91 in Calm     90% 0.00 in 0.00 W/m2
22:39 65.3 °F 62.3 °F 29.91 in Calm     90% 0.00 in 0.00 W/m2
22:44 65.1 °F 62.1 °F 29.91 in Calm     90% 0.00 in 0.00 W/m2
22:49 65.0 °F 62.3 °F 29.91 in Calm     91% 0.00 in 0.00 W/m2
22:54 64.8 °F 62.1 °F 29.90 in Calm     91% 0.00 in 0.00 W/m2
22:59 64.7 °F 62.0 °F 29.91 in Calm     91% 0.00 in 0.00 W/m2
23:04 64.5 °F 61.8 °F 29.90 in Calm     91% 0.00 in 0.00 W/m2
23:09 64.4 °F 62.0 °F 29.90 in Calm     92% 0.00 in 0.00 W/m2
23:14 64.2 °F 61.8 °F 29.90 in Calm     92% 0.00 in 0.00 W/m2
23:19 64.1 °F 61.7 °F 29.90 in Calm     92% 0.00 in 0.00 W/m2
23:24 64.0 °F 61.6 °F 29.91 in Calm     92% 0.00 in 0.00 W/m2
23:29 63.8 °F 61.4 °F 29.90 in Calm     92% 0.00 in 0.00 W/m2
23:34 63.7 °F 61.3 °F 29.90 in Calm     92% 0.00 in 0.00 W/m2
23:39 63.7 °F 61.3 °F 29.90 in Calm     92% 0.00 in 0.00 W/m2
23:44 63.6 °F 61.5 °F 29.90 in Calm     93% 0.00 in 0.00 W/m2
23:49 63.6 °F 61.5 °F 29.90 in Calm     93% 0.00 in 0.00 W/m2
23:54 63.6 °F 61.5 °F 29.90 in Calm     93% 0.00 in 0.00 W/m2
23:59 63.6 °F 61.5 °F 29.89 in Calm     93% 0.00 in 0.00 W/m2
Bourbonnais, Illinois, USA
Compliments of Weather Underground - 4 mb